createdAt,value
2023-04-20T00:00:25.547Z,100778.91
2023-04-20T00:03:18.466Z,100781.91
2023-04-20T00:05:49.334Z,100773.34
2023-04-20T00:08:18.538Z,100777.03
2023-04-20T00:10:47.759Z,100769.50
2023-04-20T00:13:16.825Z,100763.59
2023-04-20T00:15:45.757Z,100768.19
2023-04-20T00:18:16.150Z,100766.78
2023-04-20T00:20:44.862Z,100760.66
2023-04-20T00:23:13.806Z,100764.16
2023-04-20T00:25:42.390Z,100764.97
2023-04-20T00:28:11.669Z,100761.59
2023-04-20T00:30:42.714Z,100770.31
2023-04-20T00:33:12.196Z,100769.50
2023-04-20T00:35:42.194Z,100769.56
2023-04-20T00:38:11.155Z,100770.59
2023-04-20T00:40:39.867Z,100763.84
2023-04-20T00:43:12.893Z,100764.50
2023-04-20T00:45:42.304Z,100767.13
2023-04-20T00:48:12.436Z,100773.97
2023-04-20T00:50:43.204Z,100768.72
2023-04-20T00:53:14.001Z,100767.53
2023-04-20T00:55:45.715Z,100767.22
2023-04-20T00:58:15.848Z,100774.75
2023-04-20T01:00:44.661Z,100772.97
2023-04-20T01:03:14.746Z,100774.00
2023-04-20T01:05:45.034Z,100770.34
2023-04-20T01:08:13.924Z,100766.69
2023-04-20T01:10:42.546Z,100777.38
2023-04-20T01:13:11.499Z,100773.06
2023-04-20T01:15:40.324Z,100768.56
2023-04-20T01:18:11.803Z,100770.16
2023-04-20T01:20:40.770Z,100776.16
2023-04-20T01:23:11.043Z,100772.88
2023-04-20T01:25:39.910Z,100775.31
2023-04-20T01:28:09.455Z,100761.25
2023-04-20T01:30:39.348Z,100763.88
2023-04-20T01:33:08.386Z,100759.38
2023-04-20T01:35:37.073Z,100768.75
2023-04-20T01:38:06.131Z,100763.41
2023-04-20T01:40:36.454Z,100762.41
2023-04-20T01:43:05.471Z,100767.34
2023-04-20T01:45:34.237Z,100761.06
2023-04-20T01:48:03.670Z,100766.25
2023-04-20T01:50:32.402Z,100762.66
2023-04-20T01:53:01.374Z,100768.69
2023-04-20T01:55:30.058Z,100764.28
2023-04-20T01:58:00.499Z,100763.88
2023-04-20T02:00:29.148Z,100766.41
2023-04-20T02:02:58.158Z,100761.94
2023-04-20T02:05:27.356Z,100766.22
2023-04-20T02:07:59.685Z,100773.94
2023-04-20T02:10:28.379Z,100772.31
2023-04-20T02:12:57.522Z,100767.84
2023-04-20T02:15:27.885Z,100766.69
2023-04-20T02:17:57.433Z,100769.41
2023-04-20T02:20:26.402Z,100766.59
2023-04-20T02:22:55.458Z,100773.56
2023-04-20T02:25:24.528Z,100768.41
2023-04-20T02:27:53.641Z,100764.63
2023-04-20T02:30:22.532Z,100771.88
2023-04-20T02:32:52.963Z,100770.94
2023-04-20T02:35:21.661Z,100776.94
2023-04-20T02:37:51.373Z,100778.84
2023-04-20T02:40:20.143Z,100771.03
2023-04-20T02:42:49.367Z,100773.84
2023-04-20T02:45:19.049Z,100775.81
2023-04-20T02:47:49.360Z,100773.47
2023-04-20T02:50:20.894Z,100777.03
2023-04-20T02:53:06.749Z,100778.16
2023-04-20T02:55:38.135Z,100772.25
2023-04-20T02:58:17.707Z,100774.69
2023-04-20T03:01:11.816Z,100776.28
2023-04-20T03:03:41.944Z,100773.75
2023-04-20T03:06:15.004Z,100770.28
2023-04-20T03:08:49.172Z,100779.97
2023-04-20T03:11:36.060Z,100777.41
2023-04-20T03:14:06.351Z,100777.41
2023-04-20T03:16:36.062Z,100776.69
2023-04-20T03:19:06.563Z,100777.25
2023-04-20T03:21:37.340Z,100786.88
2023-04-20T03:24:07.339Z,100782.41
2023-04-20T03:26:36.471Z,100784.91
2023-04-20T03:29:15.068Z,100781.34
2023-04-20T03:31:43.915Z,100776.84
2023-04-20T03:34:13.833Z,100780.03
2023-04-20T03:36:44.526Z,100776.00
2023-04-20T03:39:13.440Z,100784.72
2023-04-20T03:41:42.307Z,100782.84
2023-04-20T03:44:11.350Z,100789.72
2023-04-20T03:46:40.050Z,100785.13
2023-04-20T03:49:08.956Z,100785.38
2023-04-20T03:51:37.665Z,100789.72
2023-04-20T03:54:09.561Z,100791.31
2023-04-20T03:56:38.723Z,100796.47
2023-04-20T03:59:07.694Z,100793.28
2023-04-20T04:01:38.692Z,100791.44
2023-04-20T04:04:07.990Z,100787.94
2023-04-20T04:06:37.235Z,100794.16
2023-04-20T04:09:06.366Z,100788.03
2023-04-20T04:11:36.542Z,100794.31
2023-04-20T04:14:06.117Z,100798.53
2023-04-20T04:16:37.692Z,100802.31
2023-04-20T04:19:06.744Z,100804.94
2023-04-20T04:21:35.987Z,100807.38
2023-04-20T04:24:07.613Z,100812.00
2023-04-20T04:26:59.123Z,100815.38
2023-04-20T04:29:29.964Z,100812.34
2023-04-20T04:32:05.287Z,100815.75
2023-04-20T04:34:34.806Z,100817.34
2023-04-20T04:37:04.473Z,100824.13
2023-04-20T04:39:47.780Z,100818.66
2023-04-20T04:42:30.213Z,100819.03
2023-04-20T04:45:02.458Z,100823.91
2023-04-20T04:47:36.885Z,100818.38
2023-04-20T04:50:07.637Z,100825.13
2023-04-20T04:52:36.542Z,100824.06
2023-04-20T04:55:08.502Z,100821.16
2023-04-20T04:57:39.322Z,100829.72
2023-04-20T05:00:12.044Z,100827.63
2023-04-20T05:02:41.377Z,100830.00
2023-04-20T05:05:10.942Z,100828.56
2023-04-20T05:07:40.221Z,100831.66
2023-04-20T05:10:10.030Z,100833.06
2023-04-20T05:12:40.776Z,100831.94
2023-04-20T05:15:11.159Z,100833.97
2023-04-20T05:17:39.892Z,100830.84
2023-04-20T05:20:10.777Z,100848.16
2023-04-20T05:22:39.724Z,100843.13
2023-04-20T05:25:11.565Z,100841.78
2023-04-20T05:27:42.682Z,100846.75
2023-04-20T05:30:20.577Z,100852.34
2023-04-20T05:32:52.546Z,100856.09
2023-04-20T05:35:22.463Z,100854.63
2023-04-20T05:37:51.754Z,100859.56
2023-04-20T05:40:20.832Z,100855.59
2023-04-20T05:42:50.954Z,100861.09
2023-04-20T05:45:20.129Z,100861.31
2023-04-20T05:47:55.255Z,100863.75
2023-04-20T05:50:25.252Z,100864.59
2023-04-20T05:52:54.910Z,100871.28
2023-04-20T05:55:24.423Z,100866.47
2023-04-20T05:57:54.626Z,100866.06
2023-04-20T06:00:25.974Z,100863.34
2023-04-20T06:02:55.584Z,100870.97
2023-04-20T06:05:24.839Z,100866.56
2023-04-20T06:07:53.492Z,100876.81
2023-04-20T06:10:22.637Z,100879.47
2023-04-20T06:12:51.483Z,100880.06
2023-04-20T06:15:22.036Z,100885.38
2023-04-20T06:17:50.798Z,100887.19
2023-04-20T06:20:20.502Z,100886.94
2023-04-20T06:22:49.604Z,100895.25
2023-04-20T06:25:18.602Z,100891.22
2023-04-20T06:27:48.421Z,100895.34
2023-04-20T06:30:18.198Z,100894.28
2023-04-20T06:32:48.380Z,100894.66
2023-04-20T06:35:17.770Z,100888.03
2023-04-20T06:37:46.509Z,100884.78
2023-04-20T06:40:16.358Z,100884.31
2023-04-20T06:42:45.294Z,100886.88
2023-04-20T06:45:14.293Z,100883.59
2023-04-20T06:47:43.005Z,100882.59
2023-04-20T06:50:13.666Z,100881.25
2023-04-20T06:52:43.071Z,100885.94
2023-04-20T06:55:13.377Z,100888.81
2023-04-20T06:57:43.876Z,100889.06
2023-04-20T07:00:14.643Z,100891.41
2023-04-20T07:02:48.565Z,100900.31
2023-04-20T07:05:19.949Z,100897.97
2023-04-20T07:07:48.679Z,100894.50
2023-04-20T07:10:18.040Z,100892.88
2023-04-20T07:12:46.887Z,100889.72
2023-04-20T07:15:16.274Z,100898.06
2023-04-20T07:17:45.031Z,100893.50
2023-04-20T07:20:14.071Z,100895.06
2023-04-20T07:22:44.108Z,100901.66
2023-04-20T07:25:13.061Z,100892.31
2023-04-20T07:27:42.633Z,100898.81
2023-04-20T07:30:13.311Z,100899.00
2023-04-20T07:32:42.660Z,100898.59
2023-04-20T07:35:12.504Z,100902.88
2023-04-20T07:37:41.299Z,100903.19
2023-04-20T07:40:12.774Z,100906.41
2023-04-20T07:42:41.633Z,100905.47
2023-04-20T07:45:13.643Z,100902.28
2023-04-20T07:47:44.120Z,100906.47
2023-04-20T07:50:13.039Z,100898.34
2023-04-20T07:52:41.849Z,100898.19
2023-04-20T07:55:14.142Z,100903.00
2023-04-20T07:57:43.082Z,100905.94
2023-04-20T08:00:14.211Z,100905.19
2023-04-20T08:02:43.036Z,100905.19
2023-04-20T08:05:12.469Z,100902.91
2023-04-20T08:07:41.502Z,100895.75
2023-04-20T08:10:12.592Z,100903.31
2023-04-20T08:12:41.666Z,100894.56
2023-04-20T08:15:12.295Z,100899.97
2023-04-20T08:17:41.014Z,100899.94
2023-04-20T08:20:11.227Z,100893.34
2023-04-20T08:22:40.656Z,100893.22
2023-04-20T08:25:11.463Z,100904.19
2023-04-20T08:27:40.176Z,100899.50
2023-04-20T08:30:10.617Z,100897.69
2023-04-20T08:32:41.117Z,100900.81
2023-04-20T08:35:10.502Z,100898.31
2023-04-20T08:37:39.389Z,100901.50
2023-04-20T08:40:11.739Z,100902.34
2023-04-20T08:42:40.425Z,100898.03
2023-04-20T08:45:10.304Z,100895.72
2023-04-20T08:47:40.143Z,100899.44
2023-04-20T08:50:11.028Z,100899.44
2023-04-20T08:52:39.902Z,100901.31
2023-04-20T08:55:11.532Z,100893.03
2023-04-20T08:57:40.316Z,100890.78
2023-04-20T09:00:13.549Z,100904.91
2023-04-20T09:02:51.694Z,100885.75
2023-04-20T09:05:29.136Z,100885.84
2023-04-20T09:08:01.184Z,100888.34
2023-04-20T09:10:43.630Z,100896.63
2023-04-20T09:13:23.169Z,100894.44
2023-04-20T09:15:52.430Z,100894.03
2023-04-20T09:18:21.399Z,100900.03
2023-04-20T09:20:50.884Z,100883.63
2023-04-20T09:23:22.268Z,100891.03
2023-04-20T09:25:53.870Z,100894.81
2023-04-20T09:28:22.653Z,100895.78
2023-04-20T09:30:51.988Z,100894.19
2023-04-20T09:33:20.717Z,100900.00
2023-04-20T09:35:49.881Z,100897.13
2023-04-20T09:38:18.847Z,100897.25
2023-04-20T09:40:47.950Z,100897.53
2023-04-20T09:43:25.515Z,100897.72
2023-04-20T09:45:56.819Z,100899.19
2023-04-20T09:48:26.270Z,100906.75
2023-04-20T09:50:56.673Z,100894.16
2023-04-20T09:53:27.057Z,100902.78
2023-04-20T09:55:56.529Z,100894.44
2023-04-20T09:58:27.447Z,100901.94
2023-04-20T10:00:56.689Z,100897.44
2023-04-20T10:03:26.157Z,100889.81
2023-04-20T10:05:55.692Z,100893.00
2023-04-20T10:08:25.354Z,100898.25
2023-04-20T10:10:54.517Z,100893.03
2023-04-20T10:13:35.749Z,100893.63
2023-04-20T10:16:04.822Z,100889.22
2023-04-20T10:18:33.562Z,100883.13
2023-04-20T10:21:09.585Z,100885.09
2023-04-20T10:23:49.808Z,100889.25
2023-04-20T10:26:19.098Z,100891.88
2023-04-20T10:28:49.529Z,100891.19
2023-04-20T10:31:20.582Z,100887.66
2023-04-20T10:33:54.295Z,100875.19
2023-04-20T10:36:32.363Z,100879.31
2023-04-20T10:39:05.113Z,100884.81
2023-04-20T10:41:34.032Z,100873.25
2023-04-20T10:44:10.773Z,100877.41
2023-04-20T10:46:39.811Z,100877.03
2023-04-20T10:49:09.156Z,100873.91
2023-04-20T10:51:38.183Z,100867.63
2023-04-20T10:54:09.432Z,100861.69
2023-04-20T10:56:44.315Z,100859.00
2023-04-20T10:59:17.652Z,100863.06
2023-04-20T11:01:48.095Z,100864.03
2023-04-20T11:04:18.794Z,100862.22
2023-04-20T11:06:49.149Z,100862.31
2023-04-20T11:09:20.441Z,100859.66
2023-04-20T11:12:02.001Z,100866.41
2023-04-20T11:14:33.661Z,100867.91
2023-04-20T11:17:03.177Z,100864.22
2023-04-20T11:19:34.305Z,100861.50
2023-04-20T11:22:06.406Z,100875.84
2023-04-20T11:24:37.493Z,100870.72
2023-04-20T11:27:06.580Z,100860.75
2023-04-20T11:29:39.084Z,100863.63
2023-04-20T11:32:11.365Z,100854.66
2023-04-20T11:34:41.190Z,100854.16
2023-04-20T11:37:13.840Z,100855.03
2023-04-20T11:39:43.080Z,100858.59
2023-04-20T11:42:12.097Z,100849.44
2023-04-20T11:44:42.152Z,100854.06
2023-04-20T11:47:11.226Z,100843.69
2023-04-20T11:49:39.951Z,100847.69
2023-04-20T11:52:09.126Z,100839.91
2023-04-20T11:54:37.805Z,100838.06
2023-04-20T11:57:07.254Z,100845.34
2023-04-20T11:59:36.109Z,100842.88
2023-04-20T12:02:06.526Z,100831.38
2023-04-20T12:04:35.476Z,100837.72
2023-04-20T12:07:04.768Z,100837.47
2023-04-20T12:09:37.223Z,100836.94
2023-04-20T12:12:07.250Z,100835.22
2023-04-20T12:14:36.573Z,100828.44
2023-04-20T12:17:07.098Z,100830.16
2023-04-20T12:19:35.789Z,100827.81
2023-04-20T12:22:04.811Z,100829.19
2023-04-20T12:24:33.530Z,100830.56
2023-04-20T12:27:03.880Z,100824.03
2023-04-20T12:29:33.203Z,100818.53
2023-04-20T12:32:02.354Z,100825.91
2023-04-20T12:34:32.424Z,100822.53
2023-04-20T12:37:01.683Z,100823.50
2023-04-20T12:39:30.389Z,100821.78
2023-04-20T12:41:59.310Z,100821.75
2023-04-20T12:44:28.023Z,100819.03
2023-04-20T12:46:57.210Z,100822.72
2023-04-20T12:49:26.044Z,100818.63
2023-04-20T12:51:56.363Z,100818.59
2023-04-20T12:54:25.155Z,100816.69
2023-04-20T12:56:54.042Z,100815.81
2023-04-20T12:59:22.850Z,100803.22
2023-04-20T13:01:51.988Z,100800.34
2023-04-20T13:04:21.008Z,100798.38
2023-04-20T13:06:50.315Z,100792.38
2023-04-20T13:09:20.918Z,100791.31
2023-04-20T13:11:49.954Z,100772.72
2023-04-20T13:14:18.746Z,100779.47
2023-04-20T13:16:47.918Z,100778.56
2023-04-20T13:19:16.826Z,100782.63
2023-04-20T13:21:45.832Z,100786.69
2023-04-20T13:24:14.570Z,100781.19
2023-04-20T13:26:44.932Z,100779.00
2023-04-20T13:29:14.736Z,100795.91
2023-04-20T13:31:44.494Z,100782.81
2023-04-20T13:34:13.303Z,100782.09
2023-04-20T13:36:42.363Z,100771.22
2023-04-20T13:39:12.218Z,100774.03
2023-04-20T13:41:41.299Z,100782.09
2023-04-20T13:44:16.037Z,100778.66
2023-04-20T13:46:47.009Z,100785.72
2023-04-20T13:49:16.906Z,100781.50
2023-04-20T13:51:45.892Z,100779.34
2023-04-20T13:54:14.492Z,100776.81
2023-04-20T13:56:43.502Z,100779.97
2023-04-20T13:59:13.980Z,100780.31
2023-04-20T14:01:43.147Z,100777.63
2023-04-20T14:04:12.009Z,100781.44
2023-04-20T14:06:41.032Z,100773.94
2023-04-20T14:09:09.928Z,100773.34
2023-04-20T14:11:39.122Z,100767.25
2023-04-20T14:14:07.985Z,100772.38
2023-04-20T14:16:46.712Z,100779.53
2023-04-20T14:19:16.346Z,100774.81
2023-04-20T14:21:46.743Z,100779.09
2023-04-20T14:24:15.966Z,100777.66
2023-04-20T14:26:45.160Z,100781.19
2023-04-20T14:29:13.863Z,100778.00
2023-04-20T14:31:44.344Z,100772.47
2023-04-20T14:34:14.256Z,100768.44
2023-04-20T14:36:43.254Z,100786.00
2023-04-20T14:39:12.008Z,100769.94
2023-04-20T14:41:40.963Z,100774.75
2023-04-20T14:44:09.727Z,100769.53
2023-04-20T14:46:42.257Z,100765.84
2023-04-20T14:49:13.017Z,100764.38
2023-04-20T14:51:42.278Z,100769.22
2023-04-20T14:54:11.052Z,100771.28
2023-04-20T14:56:39.969Z,100768.56
2023-04-20T14:59:08.760Z,100766.03
2023-04-20T15:01:39.997Z,100760.19
2023-04-20T15:04:13.652Z,100767.81
2023-04-20T15:06:42.900Z,100765.94
2023-04-20T15:09:11.759Z,100764.41
2023-04-20T15:11:40.879Z,100771.06
2023-04-20T15:14:09.682Z,100766.38
2023-04-20T15:16:39.035Z,100772.16
2023-04-20T15:19:07.808Z,100767.97
2023-04-20T15:21:38.087Z,100769.22
2023-04-20T15:24:07.946Z,100763.53
2023-04-20T15:26:36.968Z,100763.88
2023-04-20T15:29:05.782Z,100760.47
2023-04-20T15:31:35.031Z,100755.13
2023-04-20T15:34:03.863Z,100758.63
2023-04-20T15:36:33.170Z,100759.97
2023-04-20T15:39:03.867Z,100755.13
2023-04-20T15:41:33.022Z,100760.50
2023-04-20T15:44:01.746Z,100757.50
2023-04-20T15:46:31.036Z,100763.22
2023-04-20T15:48:59.850Z,100754.56
2023-04-20T15:51:28.854Z,100760.28
2023-04-20T15:53:58.214Z,100754.31
2023-04-20T15:56:28.557Z,100758.53
2023-04-20T15:58:57.236Z,100757.00
2023-04-20T16:01:26.229Z,100759.44
2023-04-20T16:03:55.239Z,100750.69
2023-04-20T16:06:24.415Z,100757.31
2023-04-20T16:08:54.112Z,100755.13
2023-04-20T16:11:23.499Z,100752.69
2023-04-20T16:13:53.969Z,100748.28
2023-04-20T16:16:23.063Z,100753.94
2023-04-20T16:18:52.225Z,100746.00
2023-04-20T16:21:22.272Z,100751.22
2023-04-20T16:23:54.205Z,100754.78
2023-04-20T16:26:24.224Z,100747.75
2023-04-20T16:28:54.462Z,100761.66
2023-04-20T16:31:23.488Z,100765.66
2023-04-20T16:33:52.153Z,100770.97
2023-04-20T16:36:21.261Z,100768.41
2023-04-20T16:38:49.919Z,100770.75
2023-04-20T16:41:18.891Z,100775.47
2023-04-20T16:43:47.654Z,100776.69
2023-04-20T16:46:22.129Z,100782.63
2023-04-20T16:48:52.017Z,100787.16
2023-04-20T16:51:21.077Z,100788.34
2023-04-20T16:53:50.334Z,100776.31
2023-04-20T16:56:19.358Z,100782.66
2023-04-20T16:58:48.086Z,100785.78
2023-04-20T17:01:18.543Z,100788.06
2023-04-20T17:03:47.927Z,100792.88
2023-04-20T17:06:16.947Z,100796.41
2023-04-20T17:08:45.626Z,100791.97
2023-04-20T17:11:15.923Z,100788.75
2023-04-20T17:13:44.684Z,100793.81
2023-04-20T17:16:13.720Z,100788.63
2023-04-20T17:18:43.739Z,100791.31
2023-04-20T17:21:12.827Z,100797.34
2023-04-20T17:23:42.008Z,100799.19
2023-04-20T17:26:11.089Z,100800.03
2023-04-20T17:28:39.840Z,100800.72
2023-04-20T17:31:08.786Z,100800.59
2023-04-20T17:33:37.670Z,100809.41
2023-04-20T17:36:08.550Z,100807.47
2023-04-20T17:38:38.521Z,100804.50
2023-04-20T17:41:07.533Z,100807.38
2023-04-20T17:43:40.302Z,100815.06
2023-04-20T17:46:09.312Z,100815.47
2023-04-20T17:48:38.142Z,100811.50
2023-04-20T17:51:08.616Z,100811.72
2023-04-20T17:53:37.238Z,100816.41
2023-04-20T17:56:06.794Z,100812.19
2023-04-20T17:58:35.498Z,100814.66
2023-04-20T18:01:04.851Z,100811.28
2023-04-20T18:03:34.007Z,100819.38
2023-04-20T18:06:03.370Z,100817.16
2023-04-20T18:08:34.540Z,100813.88
2023-04-20T18:11:05.624Z,100817.66
2023-04-20T18:13:34.279Z,100820.44
2023-04-20T18:16:07.132Z,100824.56
2023-04-20T18:18:36.245Z,100821.59
2023-04-20T18:21:05.454Z,100818.59
2023-04-20T18:23:35.668Z,100826.81
2023-04-20T18:26:04.864Z,100829.13
2023-04-20T18:28:33.586Z,100833.53
2023-04-20T18:31:02.661Z,100839.22
2023-04-20T18:33:31.475Z,100829.00
2023-04-20T18:36:00.514Z,100830.25
2023-04-20T18:38:29.141Z,100829.22
2023-04-20T18:40:59.873Z,100835.28
2023-04-20T18:43:28.670Z,100831.31
2023-04-20T18:45:57.697Z,100836.88
2023-04-20T18:48:26.474Z,100831.59
2023-04-20T18:50:55.484Z,100831.44
2023-04-20T18:53:24.229Z,100840.34
2023-04-20T18:55:53.666Z,100840.59
2023-04-20T18:58:23.775Z,100839.50
2023-04-20T19:00:52.812Z,100846.97
2023-04-20T19:03:21.756Z,100844.31
2023-04-20T19:05:50.904Z,100843.38
2023-04-20T19:08:19.977Z,100854.31
2023-04-20T19:10:49.313Z,100845.66
2023-04-20T19:13:18.010Z,100846.50
2023-04-20T19:15:48.390Z,100847.09
2023-04-20T19:18:17.303Z,100853.50
2023-04-20T19:20:46.382Z,100849.16
2023-04-20T19:23:15.089Z,100849.25
2023-04-20T19:25:44.027Z,100853.84
2023-04-20T19:28:13.080Z,100855.06
2023-04-20T19:30:42.581Z,100852.66
2023-04-20T19:33:12.737Z,100854.94
2023-04-20T19:35:42.269Z,100855.53
2023-04-20T19:38:10.948Z,100852.53
2023-04-20T19:40:39.976Z,100853.94
2023-04-20T19:43:08.642Z,100854.53
2023-04-20T19:45:37.657Z,100849.81
2023-04-20T19:48:06.898Z,100848.59
2023-04-20T19:50:37.295Z,100848.34
2023-04-20T19:53:06.374Z,100854.97
2023-04-20T19:55:35.435Z,100862.41
2023-04-20T19:58:09.092Z,100856.50
2023-04-20T20:00:38.873Z,100862.47
2023-04-20T20:03:08.522Z,100855.91
2023-04-20T20:05:39.081Z,100848.97
2023-04-20T20:08:07.821Z,100851.94
2023-04-20T20:10:36.822Z,100858.53
2023-04-20T20:13:05.800Z,100862.63
2023-04-20T20:15:34.860Z,100864.75
2023-04-20T20:18:03.749Z,100860.19
2023-04-20T20:20:33.053Z,100856.84
2023-04-20T20:23:03.171Z,100855.78
2023-04-20T20:25:34.619Z,100859.13
2023-04-20T20:28:04.084Z,100859.66
2023-04-20T20:30:33.329Z,100854.56
2023-04-20T20:33:02.043Z,100856.38
2023-04-20T20:35:33.479Z,100859.25
2023-04-20T20:38:06.312Z,100855.78
2023-04-20T20:40:36.136Z,100858.06
2023-04-20T20:43:05.351Z,100853.97
2023-04-20T20:45:34.594Z,100854.06
2023-04-20T20:48:03.359Z,100857.66
2023-04-20T20:50:32.314Z,100861.50
2023-04-20T20:53:01.026Z,100851.25
2023-04-20T20:55:31.467Z,100862.81
2023-04-20T20:58:00.130Z,100849.31
2023-04-20T21:00:29.139Z,100864.06
2023-04-20T21:02:58.947Z,100863.13
2023-04-20T21:05:28.095Z,100865.38
2023-04-20T21:07:56.837Z,100868.03
2023-04-20T21:10:25.996Z,100870.56
2023-04-20T21:12:56.116Z,100866.34
2023-04-20T21:15:25.273Z,100866.34
2023-04-20T21:17:54.029Z,100868.13
2023-04-20T21:20:23.316Z,100858.44
2023-04-20T21:22:52.090Z,100859.03
2023-04-20T21:25:21.315Z,100866.00
2023-04-20T21:27:49.980Z,100867.09
2023-04-20T21:30:20.541Z,100859.25
2023-04-20T21:32:49.202Z,100864.75
2023-04-20T21:35:18.299Z,100860.56
2023-04-20T21:37:47.013Z,100853.34
2023-04-20T21:40:16.196Z,100859.69
2023-04-20T21:42:44.888Z,100865.84
2023-04-20T21:45:14.021Z,100857.41
2023-04-20T21:47:44.239Z,100862.44
2023-04-20T21:50:13.321Z,100866.16
2023-04-20T21:52:41.993Z,100854.13
2023-04-20T21:55:11.571Z,100859.28
2023-04-20T21:57:40.280Z,100870.31
2023-04-20T22:00:11.364Z,100859.75
2023-04-20T22:02:50.215Z,100858.53
2023-04-20T22:05:19.804Z,100859.66
2023-04-20T22:07:48.521Z,100854.38
2023-04-20T22:10:17.608Z,100857.88
2023-04-20T22:12:46.483Z,100858.00
2023-04-20T22:15:16.803Z,100852.81
2023-04-20T22:17:47.694Z,100864.44
2023-04-20T22:20:19.342Z,100864.88
2023-04-20T22:22:48.277Z,100871.97
2023-04-20T22:25:17.253Z,100873.13
2023-04-20T22:27:46.689Z,100869.78
2023-04-20T22:30:16.277Z,100863.09
2023-04-20T22:32:45.061Z,100866.72
2023-04-20T22:35:15.515Z,100864.38
2023-04-20T22:37:44.167Z,100856.78
2023-04-20T22:40:14.229Z,100864.81
2023-04-20T22:42:43.090Z,100866.19
2023-04-20T22:45:12.881Z,100870.63
2023-04-20T22:47:42.547Z,100863.75
2023-04-20T22:50:12.851Z,100873.06
2023-04-20T22:52:42.868Z,100872.13
2023-04-20T22:55:12.514Z,100875.16
2023-04-20T22:57:41.198Z,100871.66
2023-04-20T23:00:13.816Z,100869.66
2023-04-20T23:02:42.935Z,100870.31
2023-04-20T23:05:12.273Z,100869.44
2023-04-20T23:07:45.270Z,100866.91
2023-04-20T23:10:16.192Z,100861.19
2023-04-20T23:12:46.926Z,100868.94
2023-04-20T23:15:16.089Z,100872.09
2023-04-20T23:17:44.760Z,100867.03
2023-04-20T23:20:15.139Z,100868.06
2023-04-20T23:22:45.188Z,100868.69
2023-04-20T23:25:14.248Z,100866.38
2023-04-20T23:27:43.028Z,100865.75
2023-04-20T23:30:13.136Z,100872.06
2023-04-20T23:32:43.877Z,100872.81
2023-04-20T23:35:14.129Z,100863.00
2023-04-20T23:37:44.120Z,100864.25
2023-04-20T23:40:13.562Z,100864.59
2023-04-20T23:42:42.198Z,100862.88
2023-04-20T23:45:12.630Z,100861.28
2023-04-20T23:47:41.422Z,100864.06
2023-04-20T23:50:11.086Z,100864.44
2023-04-20T23:52:40.646Z,100859.19
2023-04-20T23:55:11.805Z,100855.81
2023-04-20T23:57:40.617Z,100858.22
